aviador You're here:

RKNY Decoded Metar

YANGKU in KOREA
Report Time2017-12-16 16:00:00
UTC Time2017-12-16 16:44:29
Flight Rules vfr VFR
Wind250° at 10 kt
W.Decomp.*RWY 33: 2.9 kt HW 9.6 kt LCW
W.Rank250° ranks 2
Current wind is above 250° avg. (8.5)
Visibility9999 m
Phenomena:N/A
Clouds:N/A
Expected CloudBase > 5,600 ft AGL from Temp-Dew spread
CeilingNone
Temp-7°C (ISA -22)
Dew Point-21°C (32% RH)
AAT-14.2°C
QNH1026 hPa
Density Alt-2,854 ft
Elevation243 ft
Report Wrong Elevation
Raw Report
RKNY 161600Z AUTO 25010KT 9999 NCD M07/M21 Q1026=

Extra information for RKNY:More info

Metar Taf Metar & Taf Last 4 Metars F.Rules Stats Wind Profile Meteogram Temp Stats Airport Information Weather charts Add Link Nearby VenuesMetar ALERT Operation Metar Decoded Social comments